Time;durP1;ratioP1;P1;durP2;ratioP2;P2;SDS_P1;SDS_P2;PMS_P1;PMS_P2;Temp;Humidity;BMP_temperature;BMP_pressure;BME280_temperature;BME280_humidity;BME280_pressure;Samples;Min_cycle;Max_cycle;Signal;HPM_P1;HPM_P2
2022/05/23 00:00:10;;;;;;;3.87;3.40;;;;;;;20.66;66.78;97364.63;4190787;28;21241;-90
2022/05/23 00:02:13;;;;;;;4.67;3.60;;;;;;;20.67;65.24;97367.13;4178489;28;20667;-90
2022/05/23 00:04:16;;;;;;;6.33;3.60;;;;;;;20.68;68.16;97365.31;4159681;28;20625;-89
2022/05/23 00:06:22;;;;;;;3.50;2.93;;;;;;;20.66;65.58;97360.16;4186935;28;20660;-89
2022/05/23 00:08:28;;;;;;;3.93;3.20;;;;;;;20.64;67.08;97364.84;4176079;28;20710;-89
2022/05/23 00:10:31;;;;;;;4.30;3.37;;;;;;;20.57;67.34;97363.91;4174843;28;20656;-88
2022/05/23 00:12:36;;;;;;;4.40;4.00;;;;;;;20.53;69.04;97359.16;4188318;28;20644;-87
2022/05/23 00:14:41;;;;;;;4.10;3.70;;;;;;;20.51;68.43;97374.44;4171250;28;20729;-88
2022/05/23 00:16:46;;;;;;;4.63;3.70;;;;;;;20.47;70.16;97355.41;4177930;28;20846;-88
2022/05/23 00:18:50;;;;;;;4.23;3.83;;;;;;;20.42;69.97;97373.69;4161418;28;20652;-88
2022/05/23 00:20:53;;;;;;;5.03;4.00;;;;;;;20.38;71.39;97377.69;4174520;28;20692;-88
2022/05/23 00:22:58;;;;;;;5.20;4.07;;;;;;;20.32;71.10;97371.50;4191235;28;20643;-87
2022/05/23 00:25:01;;;;;;;4.43;4.03;;;;;;;20.30;71.00;97362.91;4178118;28;20652;-88
2022/05/23 00:27:05;;;;;;;4.80;4.17;;;;;;;20.25;71.29;97365.28;4193466;28;20639;-88
2022/05/23 00:29:08;;;;;;;4.90;4.10;;;;;;;20.21;71.94;97361.38;4155842;28;20645;-88
2022/05/23 00:31:11;;;;;;;5.00;4.60;;;;;;;20.13;71.70;97354.31;4180346;28;20788;-88
2022/05/23 00:35:36;;;;;;;4.57;3.80;;;;;;;20.04;73.56;97357.22;4190245;28;20628;-88
2022/05/23 00:37:39;;;;;;;3.87;3.47;;;;;;;20.00;73.55;97355.94;4188972;28;20739;-88
2022/05/23 00:39:50;;;;;;;5.77;4.07;;;;;;;19.96;74.22;97357.31;4160674;28;20637;-88
2022/05/23 00:44:14;;;;;;;4.60;4.10;;;;;;;19.82;73.69;97347.47;4155426;28;20661;-88
2022/05/23 00:46:17;;;;;;;4.80;3.90;;;;;;;19.74;75.22;97329.03;4187336;28;20630;-88
2022/05/23 00:48:23;;;;;;;6.43;4.23;;;;;;;19.70;74.54;97324.28;4171944;28;20637;-88
2022/05/23 00:50:26;;;;;;;4.70;4.20;;;;;;;19.65;75.85;97319.53;4172245;28;20655;-88
2022/05/23 00:52:33;;;;;;;6.87;4.63;;;;;;;19.58;74.77;97305.34;4161466;28;20640;-87
2022/05/23 00:54:39;;;;;;;4.97;4.13;;;;;;;19.56;74.94;97307.38;4176282;28;20628;-88
2022/05/23 00:56:46;;;;;;;4.63;4.00;;;;;;;19.49;75.57;97303.78;4158455;28;20763;-88
2022/05/23 00:58:52;;;;;;;7.00;4.30;;;;;;;19.44;75.03;97302.69;4177153;28;20621;-88
2022/05/23 01:00:58;;;;;;;5.70;4.53;;;;;;;19.42;74.03;97302.03;4178691;28;20678;-88
2022/05/23 01:03:05;;;;;;;5.03;4.50;;;;;;;19.39;73.92;97303.22;4193089;28;20670;-88
2022/05/23 01:05:10;;;;;;;5.57;4.70;;;;;;;19.36;75.14;97307.22;4170541;28;21370;-88
2022/05/23 01:07:14;;;;;;;5.23;4.60;;;;;;;19.33;75.02;97305.72;4157347;28;20633;-88
2022/05/23 01:09:20;;;;;;;4.43;3.63;;;;;;;19.31;74.60;97288.41;4166097;28;20665;-88
2022/05/23 01:11:23;;;;;;;4.60;3.97;;;;;;;19.32;74.43;97290.03;4170577;28;21291;-88
2022/05/23 01:13:28;;;;;;;4.20;3.80;;;;;;;19.29;73.75;97285.94;4160875;28;21228;-89
2022/05/23 01:15:32;;;;;;;4.20;3.80;;;;;;;19.30;73.57;97289.41;4166289;28;20653;-87
2022/05/23 01:17:36;;;;;;;5.30;4.73;;;;;;;19.21;73.54;97288.63;4180741;28;20747;-87
2022/05/23 01:19:43;;;;;;;4.60;4.20;;;;;;;19.26;73.60;97288.09;4175783;28;20635;-88
2022/05/23 01:21:56;;;;;;;7.80;4.37;;;;;;;19.23;73.00;97280.53;4163933;28;20633;-88
2022/05/23 01:24:07;;;;;;;5.87;4.60;;;;;;;19.17;73.35;97271.50;4190096;28;21127;-88
2022/05/23 01:26:19;;;;;;;6.20;4.30;;;;;;;19.11;72.35;97271.38;4188829;28;20632;-88
2022/05/23 01:28:27;;;;;;;6.60;4.30;;;;;;;19.08;72.76;97269.91;4158168;28;20657;-88
2022/05/23 01:30:31;;;;;;;5.20;4.70;;;;;;;19.12;72.30;97265.09;4191053;28;20702;-88
2022/05/23 01:32:47;;;;;;;7.17;4.00;;;;;;;19.08;72.42;97255.88;4179431;28;20745;-88
2022/05/23 01:34:50;;;;;;;5.03;3.87;;;;;;;19.09;72.75;97252.22;4175938;28;20621;-88
2022/05/23 01:36:55;;;;;;;4.43;4.10;;;;;;;19.11;72.58;97247.56;4194004;28;20719;-88
2022/05/23 01:39:04;;;;;;;4.13;3.73;;;;;;;19.07;72.21;97241.00;4171580;28;20775;-88
2022/05/23 01:41:07;;;;;;;4.30;3.90;;;;;;;19.07;72.22;97243.66;4179018;28;21210;-88
2022/05/23 01:43:15;;;;;;;4.40;4.00;;;;;;;19.06;72.09;97245.47;4192740;28;20630;-88
2022/05/23 01:45:21;;;;;;;4.60;4.17;;;;;;;19.03;71.84;97240.56;4186818;28;20640;-88
2022/05/23 01:47:25;;;;;;;4.80;4.40;;;;;;;19.06;71.40;97239.34;4162705;28;20629;-88
2022/05/23 01:49:31;;;;;;;5.03;4.40;;;;;;;19.07;71.66;97246.28;4162777;28;20675;-88
2022/05/23 01:51:40;;;;;;;4.93;4.20;;;;;;;19.06;71.45;97237.56;4191183;28;20644;-88
2022/05/23 01:53:45;;;;;;;4.50;4.10;;;;;;;19.06;71.27;97240.19;4194072;28;20631;-88
2022/05/23 01:55:48;;;;;;;4.10;3.77;;;;;;;19.08;70.39;97243.47;4191064;28;20627;-88
2022/05/23 01:57:55;;;;;;;4.73;4.23;;;;;;;19.07;70.45;97244.47;4162020;28;20648;-88
2022/05/23 02:02:21;;;;;;;4.93;4.10;;;;;;;19.09;70.59;97253.06;4182664;28;20637;-88
2022/05/23 02:04:25;;;;;;;4.80;4.30;;;;;;;19.12;71.01;97257.16;4196615;28;20635;-88
2022/05/23 02:06:29;;;;;;;4.83;4.40;;;;;;;19.10;70.36;97249.41;4180147;28;20645;-88
2022/05/23 02:08:36;;;;;;;5.00;4.40;;;;;;;19.09;70.57;97244.28;4175240;28;20623;-88
2022/05/23 02:10:40;;;;;;;4.70;4.20;;;;;;;19.09;71.43;97241.66;4160229;28;20633;-87
2022/05/23 02:12:48;;;;;;;6.13;4.70;;;;;;;19.07;71.01;97238.38;4177933;28;20654;-88
2022/05/23 02:14:56;;;;;;;4.60;4.20;;;;;;;19.05;70.72;97245.66;4195080;28;20635;-88
2022/05/23 02:17:23;;;;;;;6.53;4.93;;;;;;;19.00;72.12;97232.94;4192049;28;20991;-88
2022/05/23 02:19:31;;;;;;;5.30;4.63;;;;;;;18.91;71.78;97218.13;4162727;28;20632;-88
2022/05/23 02:21:47;;;;;;;4.57;4.17;;;;;;;18.86;72.87;97219.66;4161662;28;20832;-88
2022/05/23 02:23:50;;;;;;;5.47;4.77;;;;;;;18.89;73.28;97230.69;4191671;28;20631;-88
2022/05/23 02:25:53;;;;;;;5.20;4.50;;;;;;;18.81;73.41;97221.19;4174873;28;20731;-88
2022/05/23 02:28:20;;;;;;;7.33;4.70;;;;;;;18.79;73.32;97218.72;4192956;28;21391;-88
2022/05/23 02:30:23;;;;;;;5.23;4.80;;;;;;;18.80;72.59;97214.25;4195427;28;20637;-88
2022/05/23 02:32:31;;;;;;;5.33;4.83;;;;;;;18.76;72.67;97207.69;4170918;28;20688;-88
2022/05/23 02:34:39;;;;;;;4.63;4.23;;;;;;;18.78;72.45;97217.09;4178396;28;21071;-87
2022/05/23 02:36:43;;;;;;;5.87;4.87;;;;;;;18.76;72.40;97216.41;4175057;28;21273;-88
2022/05/23 02:38:48;;;;;;;5.93;4.87;;;;;;;18.75;72.44;97212.16;4161988;28;20725;-88
2022/05/23 02:40:51;;;;;;;4.83;4.33;;;;;;;18.75;72.43;97216.59;4177962;28;20636;-88
2022/05/23 02:42:55;;;;;;;7.40;4.80;;;;;;;18.77;72.24;97220.72;4176588;28;20997;-88
2022/05/23 02:44:58;;;;;;;5.33;4.40;;;;;;;18.78;72.47;97216.25;4177708;28;20640;-88
2022/05/23 02:47:06;;;;;;;6.97;4.57;;;;;;;18.77;72.59;97212.78;4157711;28;20641;-88
2022/05/23 02:49:15;;;;;;;7.90;4.73;;;;;;;18.77;72.49;97204.84;4160342;28;21069;-87
2022/05/23 02:51:21;;;;;;;5.53;4.80;;;;;;;18.74;72.91;97192.00;4172908;28;20653;-88
2022/05/23 02:53:27;;;;;;;5.40;5.00;;;;;;;18.71;72.59;97195.00;4159312;28;20704;-87
2022/05/23 02:55:34;;;;;;;4.70;4.30;;;;;;;18.68;73.42;97192.72;4177360;28;21053;-87
2022/05/23 02:57:39;;;;;;;5.20;4.80;;;;;;;18.67;73.08;97183.16;4161233;28;20668;-88
2022/05/23 02:59:49;;;;;;;5.43;4.40;;;;;;;18.63;72.65;97176.56;4178032;28;21277;-87
2022/05/23 03:04:18;;;;;;;6.30;5.10;;;;;;;18.59;73.55;97169.16;4160382;28;21009;-88
2022/05/23 03:06:22;;;;;;;5.63;5.03;;;;;;;18.58;74.37;97155.16;4175024;28;20630;-88
2022/05/23 03:08:27;;;;;;;5.33;4.83;;;;;;;18.58;73.66;97152.50;4173094;28;21082;-87
2022/05/23 03:10:32;;;;;;;6.03;5.43;;;;;;;18.53;72.77;97146.09;4160578;28;21209;-87
2022/05/23 03:12:35;;;;;;;5.03;4.53;;;;;;;18.55;73.56;97149.38;4160267;28;20646;-88
2022/05/23 03:14:38;;;;;;;5.10;4.60;;;;;;;18.53;73.71;97149.56;4163196;28;20648;-87
2022/05/23 03:16:41;;;;;;;4.97;4.47;;;;;;;18.54;73.31;97145.13;4176971;28;20796;-87
2022/05/23 03:18:45;;;;;;;5.50;4.93;;;;;;;18.54;73.77;97140.63;4191043;28;21236;-88
2022/05/23 03:20:55;;;;;;;5.30;4.80;;;;;;;18.54;73.00;97129.25;4179268;28;20644;-87
2022/05/23 03:27:41;;;;;;;5.10;4.30;;;;;;;18.57;72.10;97129.72;4163718;28;21251;-87
2022/05/23 03:29:51;;;;;;;4.40;4.00;;;;;;;18.59;72.27;97113.69;4177709;28;20628;-86
2022/05/23 03:31:55;;;;;;;6.13;4.40;;;;;;;18.60;71.98;97125.91;4212179;28;20632;-87
2022/05/23 03:33:58;;;;;;;5.10;4.60;;;;;;;18.57;72.22;97113.88;4200576;28;20619;-88
2022/05/23 03:36:03;;;;;;;5.10;4.60;;;;;;;18.60;71.73;97121.44;4183298;28;20625;-88
2022/05/23 03:38:07;;;;;;;7.30;4.37;;;;;;;18.64;71.69;97117.47;4197802;28;20723;-89
2022/05/23 03:40:14;;;;;;;4.80;4.30;;;;;;;18.63;71.60;97122.91;4198228;28;20683;-87
2022/05/23 03:42:23;;;;;;;4.97;4.20;;;;;;;18.63;71.57;97122.91;4183906;28;20723;-88
2022/05/23 03:44:34;;;;;;;5.50;4.13;;;;;;;18.67;71.64;97127.69;4195723;28;20632;-88
2022/05/23 03:46:37;;;;;;;10.83;4.70;;;;;;;18.71;71.45;97128.94;4191199;28;21122;-88
2022/05/23 03:48:41;;;;;;;4.90;4.50;;;;;;;18.75;72.16;97126.75;4194295;28;21219;-88
2022/05/23 03:50:47;;;;;;;5.80;5.30;;;;;;;18.77;72.28;97128.22;4179419;28;20957;-88
2022/05/23 03:52:52;;;;;;;5.23;4.73;;;;;;;18.76;73.87;97129.22;4178735;28;20657;-88
2022/05/23 03:54:59;;;;;;;5.90;5.27;;;;;;;18.76;73.75;97144.25;4176508;28;20632;-88
2022/05/23 03:57:04;;;;;;;6.37;5.20;;;;;;;18.76;74.43;97138.97;4160607;28;20732;-88
2022/05/23 03:59:07;;;;;;;5.97;5.20;;;;;;;18.75;74.09;97145.25;4171705;28;21192;-88
2022/05/23 04:01:21;;;;;;;5.70;5.07;;;;;;;18.75;73.66;97134.69;4154901;28;20647;-88
2022/05/23 04:03:43;;;;;;;5.20;4.60;;;;;;;18.73;73.49;97129.56;4174121;28;21199;-88
2022/05/23 04:05:47;;;;;;;7.80;5.40;;;;;;;18.73;73.55;97137.50;4179491;28;20638;-88
2022/05/23 04:07:57;;;;;;;5.30;4.80;;;;;;;18.72;73.35;97138.53;4160597;28;20673;-88
2022/05/23 04:10:07;;;;;;;5.80;4.87;;;;;;;18.73;74.01;97139.34;4160235;28;20675;-87
2022/05/23 04:12:11;;;;;;;5.50;5.00;;;;;;;18.74;75.65;97135.69;4157209;28;20742;-88
2022/05/23 04:14:21;;;;;;;6.20;5.10;;;;;;;18.72;75.31;97141.16;4178048;28;20636;-88
2022/05/23 04:16:27;;;;;;;6.10;5.50;;;;;;;18.72;75.34;97154.38;4156674;28;20649;-88
2022/05/23 04:18:30;;;;;;;6.73;5.37;;;;;;;18.72;75.38;97170.22;4170964;28;21077;-88
2022/05/23 04:20:35;;;;;;;6.20;5.70;;;;;;;18.72;75.65;97206.38;4156321;28;20640;-87
2022/05/23 04:22:49;;;;;;;5.80;5.30;;;;;;;18.69;76.18;97255.13;4186312;28;20629;-87
2022/05/23 04:24:59;;;;;;;5.97;5.37;;;;;;;18.65;76.06;97301.38;4172682;28;20642;-88
2022/05/23 04:27:03;;;;;;;6.53;5.40;;;;;;;18.59;77.27;97359.38;4159801;28;20638;-88
2022/05/23 04:29:13;;;;;;;5.60;5.10;;;;;;;18.54;76.98;97414.56;4186532;28;21073;-88
2022/05/23 04:31:17;;;;;;;6.37;5.80;;;;;;;18.41;77.09;97412.41;4187739;28;20633;-87
2022/05/23 04:36:12;;;;;;;8.50;5.67;;;;;;;18.38;77.99;97430.44;4166758;28;20647;-88
2022/05/23 04:38:21;;;;;;;6.57;5.20;;;;;;;18.35;79.13;97451.06;4180968;28;20631;-88
2022/05/23 04:40:29;;;;;;;6.23;5.63;;;;;;;18.31;80.56;97439.19;4158115;28;20629;-88
2022/05/23 04:42:34;;;;;;;13.90;6.40;;;;;;;18.27;80.83;97432.63;4173910;28;20644;-89
2022/05/23 04:44:38;;;;;;;11.57;6.50;;;;;;;18.24;87.34;97425.03;4159725;28;20637;-89
2022/05/23 04:51:29;;;;;;;9.60;6.77;;;;;;;17.64;93.75;97455.34;4174266;28;21260;-89
2022/05/23 04:53:32;;;;;;;11.93;7.43;;;;;;;17.57;92.65;97487.81;4181624;28;20651;-89
2022/05/23 04:55:51;;;;;;;8.80;6.50;;;;;;;17.39;93.74;97470.47;4167291;28;21199;-88
2022/05/23 04:57:58;;;;;;;7.33;6.63;;;;;;;17.32;93.38;97480.84;4157799;28;20626;-88
2022/05/23 05:00:02;;;;;;;9.10;6.60;;;;;;;17.24;94.69;97461.53;4159887;28;20617;-88
2022/05/23 05:02:13;;;;;;;7.10;6.40;;;;;;;17.20;94.73;97444.34;4184269;28;20636;-89
2022/05/23 05:04:17;;;;;;;7.43;6.80;;;;;;;17.23;94.64;97450.19;4168390;28;20636;-89
2022/05/23 05:06:20;;;;;;;9.00;7.20;;;;;;;17.24;94.25;97441.28;4182191;28;20656;-92
2022/05/23 05:08:23;;;;;;;8.27;6.80;;;;;;;17.32;91.71;97430.75;4174142;28;20656;-92
2022/05/23 05:10:29;;;;;;;7.43;6.73;;;;;;;17.38;91.75;97421.34;4154232;28;20731;-92
2022/05/23 05:12:39;;;;;;;8.97;7.10;;;;;;;17.39;90.84;97423.03;4176096;28;20654;-93
2022/05/23 05:14:44;;;;;;;11.47;7.30;;;;;;;17.39;89.74;97423.84;4161930;28;20629;-91
2022/05/23 05:16:47;;;;;;;8.43;7.03;;;;;;;17.37;91.68;97410.00;4176607;28;20660;-93
2022/05/23 05:18:51;;;;;;;8.07;7.20;;;;;;;17.42;90.70;97386.59;4157629;28;21249;-96
2022/05/23 05:21:14;;;;;;;8.17;7.10;;;;;;;17.32;91.23;97366.66;4179684;28;20659;-96
2022/05/23 05:23:47;;;;;;;9.40;6.93;;;;;;;17.27;91.28;97356.59;4178813;28;21045;-93
2022/05/23 05:26:06;;;;;;;8.30;7.20;;;;;;;17.18;92.41;97325.09;4160498;28;20891;-95
2022/05/23 05:28:16;;;;;;;8.47;7.40;;;;;;;17.11;92.09;97319.66;4140270;28;20692;-94
2022/05/23 05:30:21;;;;;;;8.80;7.07;;;;;;;17.03;93.14;97289.84;4180006;28;21071;-93
2022/05/23 05:32:35;;;;;;;8.33;7.53;;;;;;;17.00;92.00;97269.06;4173259;28;20640;-94
2022/05/23 05:34:41;;;;;;;7.27;6.57;;;;;;;16.95;93.78;97271.38;4172906;28;20683;-95
2022/05/23 05:36:47;;;;;;;9.23;7.17;;;;;;;16.95;92.71;97258.22;4154830;28;21020;-93
2022/05/23 05:38:53;;;;;;;7.07;6.47;;;;;;;16.95;93.24;97252.94;4181383;28;20635;-95
2022/05/23 05:41:03;;;;;;;7.73;5.77;;;;;;;16.95;92.17;97260.03;4158790;28;20649;-95
2022/05/23 05:43:14;;;;;;;6.37;5.77;;;;;;;17.00;93.11;97262.00;4188493;28;20671;-94
2022/05/23 05:45:23;;;;;;;6.37;5.77;;;;;;;17.05;93.42;97261.53;4166346;28;20714;-93
2022/05/23 05:47:27;;;;;;;6.60;6.00;;;;;;;17.10;92.25;97259.22;4157304;28;21026;-93
2022/05/23 05:49:45;;;;;;;6.00;5.33;;;;;;;17.14;92.06;97250.00;4159129;28;20621;-96
2022/05/23 05:51:54;;;;;;;6.50;5.77;;;;;;;17.11;91.11;97252.97;4174889;28;21091;-94
2022/05/23 05:54:06;;;;;;;5.87;5.17;;;;;;;17.12;91.27;97233.50;4161873;28;21072;-93
2022/05/23 05:56:18;;;;;;;6.30;5.70;;;;;;;17.16;90.39;97237.47;4170117;28;20695;-94
2022/05/23 05:58:21;;;;;;;6.33;5.73;;;;;;;17.20;90.56;97218.56;4155614;28;20709;-93
2022/05/23 06:00:36;;;;;;;6.43;5.60;;;;;;;17.19;89.97;97208.97;4191189;28;20626;-92
2022/05/23 06:02:39;;;;;;;7.10;6.40;;;;;;;17.24;91.20;97203.22;4172402;28;21072;-92
2022/05/23 06:04:43;;;;;;;7.13;6.40;;;;;;;17.32;90.77;97197.94;4164138;28;20625;-92
2022/05/23 06:11:51;;;;;;;5.87;5.33;;;;;;;17.50;89.65;97202.84;4111110;28;20642;-93
2022/05/23 06:13:58;;;;;;;8.63;5.67;;;;;;;17.45;88.32;97200.88;4160545;28;20649;-93
2022/05/23 06:16:14;;;;;;;7.50;5.60;;;;;;;17.45;89.38;97185.88;4161431;28;20648;-93
2022/05/23 06:18:33;;;;;;;5.97;5.27;;;;;;;17.44;88.44;97165.78;4191646;28;21044;-93
2022/05/23 06:20:37;;;;;;;6.90;5.80;;;;;;;17.36;90.15;97151.78;4169619;28;20636;-94
2022/05/23 06:22:43;;;;;;;6.40;5.60;;;;;;;17.30;89.83;97140.09;4158179;28;20632;-94
2022/05/23 06:24:50;;;;;;;7.90;6.40;;;;;;;17.30;91.60;97123.47;4153680;28;20640;-93
2022/05/23 06:26:53;;;;;;;7.97;6.07;;;;;;;17.26;90.55;97122.16;4161801;28;20633;-94
2022/05/23 06:29:12;;;;;;;6.67;5.73;;;;;;;17.24;90.47;97114.41;4188441;28;20675;-92
2022/05/23 06:31:19;;;;;;;6.70;6.10;;;;;;;17.33;89.21;97129.22;4162558;28;20641;-92
2022/05/23 06:33:23;;;;;;;7.47;5.70;;;;;;;17.47;89.54;97136.44;4173185;28;20643;-92
2022/05/23 06:35:39;;;;;;;8.83;6.30;;;;;;;17.58;89.15;97131.59;4174357;28;23882;-92
2022/05/23 06:37:44;;;;;;;6.90;6.20;;;;;;;17.76;89.68;97123.47;4177764;28;20715;-93
2022/05/23 06:40:07;;;;;;;6.90;6.30;;;;;;;17.88;86.53;97108.91;4159778;28;20737;-91
2022/05/23 06:42:32;;;;;;;7.50;6.50;;;;;;;18.06;87.47;97104.97;4174662;28;20997;-94
2022/05/23 06:44:58;;;;;;;8.50;6.60;;;;;;;18.28;87.43;97094.47;4175287;28;20645;-92
2022/05/23 06:47:22;;;;;;;7.27;6.47;;;;;;;18.36;87.21;97098.84;4170438;28;20640;-93
2022/05/23 06:49:46;;;;;;;6.53;5.93;;;;;;;18.32;86.89;97095.75;4195751;28;20620;-93
2022/05/23 06:51:59;;;;;;;6.73;6.13;;;;;;;18.25;86.03;97086.91;4171953;28;21030;-91
2022/05/23 06:54:23;;;;;;;6.40;5.80;;;;;;;18.18;85.01;97085.16;4186989;28;20646;-93
2022/05/23 06:56:40;;;;;;;6.00;5.40;;;;;;;18.21;85.61;97076.88;4194319;28;20707;-92
2022/05/23 06:58:44;;;;;;;9.67;7.00;;;;;;;18.28;86.10;97070.72;4175632;28;20636;-92
2022/05/23 07:01:00;;;;;;;6.60;6.00;;;;;;;18.44;86.69;97060.81;4152484;28;20656;-92
2022/05/23 07:03:33;;;;;;;7.20;5.60;;;;;;;18.75;86.20;97047.47;4120695;28;20639;-87
2022/05/23 07:12:50;;;;;;;6.57;5.10;;;;;;;19.61;83.43;97053.63;4188004;28;20646;-89
2022/05/23 07:14:57;;;;;;;7.40;5.40;;;;;;;19.78;82.43;97065.63;4185584;28;21260;-89
2022/05/23 07:17:05;;;;;;;6.37;5.77;;;;;;;19.90;83.92;97066.81;4177092;28;20636;-90
2022/05/23 07:19:32;;;;;;;7.00;5.90;;;;;;;19.83;82.13;97073.00;4187479;28;20621;-89
2022/05/23 07:21:40;;;;;;;6.40;5.67;;;;;;;19.85;82.26;97066.53;4176334;28;21210;-90
2022/05/23 07:23:48;;;;;;;5.80;5.20;;;;;;;20.03;82.48;97059.03;4171973;28;21223;-91
2022/05/23 07:26:16;;;;;;;5.80;5.27;;;;;;;20.38;81.02;97056.31;4173644;28;21008;-91
2022/05/23 07:28:23;;;;;;;6.83;5.00;;;;;;;20.68;82.44;97066.59;4178343;28;21499;-90
2022/05/23 07:30:30;;;;;;;6.20;5.10;;;;;;;21.02;80.03;97066.66;4171177;28;21383;-90
2022/05/23 07:32:34;;;;;;;6.10;5.03;;;;;;;21.28;80.93;97065.78;4155612;28;20733;-92
2022/05/23 07:34:38;;;;;;;5.40;4.80;;;;;;;21.48;78.56;97069.41;4172022;28;20661;-92
2022/05/23 07:36:42;;;;;;;5.70;4.77;;;;;;;21.66;78.67;97072.34;4170462;28;20697;-92
2022/05/23 07:38:47;;;;;;;5.23;4.73;;;;;;;21.75;77.02;97079.13;4171566;28;20632;-91
2022/05/23 07:41:11;;;;;;;5.30;4.63;;;;;;;21.73;78.23;97078.50;4156786;28;21099;-91
2022/05/23 07:43:16;;;;;;;5.07;4.43;;;;;;;21.71;76.75;97072.59;4164745;28;20657;-92
2022/05/23 07:45:19;;;;;;;6.17;4.97;;;;;;;21.71;76.99;97071.75;4179255;28;20673;-92
2022/05/23 07:47:25;;;;;;;5.77;4.87;;;;;;;21.68;77.62;97072.97;4162370;28;20641;-92
2022/05/23 07:49:50;;;;;;;5.50;4.63;;;;;;;21.71;79.72;97074.41;4177828;28;20715;-92
2022/05/23 07:51:55;;;;;;;5.10;4.17;;;;;;;21.72;79.73;97071.56;4160717;28;20663;-91
2022/05/23 08:01:10;;;;;;;5.00;4.50;;;;;;;21.90;78.43;97071.81;4134322;28;20638;-92
2022/05/23 08:03:17;;;;;;;4.93;4.50;;;;;;;21.94;76.31;97065.13;4168814;28;20719;-93
2022/05/23 08:05:43;;;;;;;4.30;3.90;;;;;;;22.09;76.70;97068.44;4174290;28;20669;-93
2022/05/23 08:07:46;;;;;;;5.10;4.60;;;;;;;22.30;76.98;97069.94;4168340;28;20637;-91
2022/05/23 08:09:50;;;;;;;5.43;4.93;;;;;;;22.37;77.97;97076.09;4189964;28;20759;-87
2022/05/23 08:11:53;;;;;;;6.03;4.97;;;;;;;22.42;76.22;97078.13;4170952;28;20636;-87
2022/05/23 08:13:57;;;;;;;5.83;4.50;;;;;;;22.35;76.78;97078.09;4170063;28;20632;-88
2022/05/23 08:16:02;;;;;;;6.30;4.60;;;;;;;22.33;77.52;97082.00;4171008;28;21072;-92
2022/05/23 08:18:07;;;;;;;7.00;4.60;;;;;;;22.27;76.76;97067.66;4153291;28;20687;-93
2022/05/23 08:20:13;;;;;;;6.07;4.50;;;;;;;22.20;75.09;97065.19;4151969;28;20630;-92
2022/05/23 08:22:19;;;;;;;4.83;4.43;;;;;;;22.09;74.92;97060.47;4154486;28;20712;-92
2022/05/23 08:24:33;;;;;;;4.37;3.97;;;;;;;22.12;75.57;97076.81;4169726;28;20644;-93
2022/05/23 08:26:36;;;;;;;6.20;4.47;;;;;;;22.15;75.12;97073.75;4171046;28;20699;-90
2022/05/23 08:28:41;;;;;;;4.93;4.43;;;;;;;22.16;75.51;97064.78;4154721;28;20637;-92
2022/05/23 08:30:45;;;;;;;4.67;4.27;;;;;;;22.26;75.64;97071.34;4171266;28;21261;-92
2022/05/23 08:32:56;;;;;;;4.90;4.50;;;;;;;22.37;78.49;97076.09;4159752;28;20652;-92
2022/05/23 08:34:59;;;;;;;13.07;11.40;;;;;;;22.43;80.30;97080.59;4156100;28;20658;-88
2022/05/23 08:37:03;;;;;;;8.30;7.33;;;;;;;22.45;78.77;97067.91;4184044;28;21068;-86
2022/05/23 08:39:09;;;;;;;5.30;4.80;;;;;;;22.45;77.14;97070.56;4150128;28;20721;-91
2022/05/23 08:41:27;;;;;;;5.53;4.27;;;;;;;22.47;76.44;97065.03;4182303;28;21124;-88
2022/05/23 08:43:41;;;;;;;4.90;4.30;;;;;;;22.51;77.11;97059.13;4166216;28;20623;-87
2022/05/23 08:45:45;;;;;;;5.43;4.77;;;;;;;22.50;79.11;97060.13;4173183;28;21055;-88
2022/05/23 08:47:56;;;;;;;5.70;4.73;;;;;;;22.45;78.17;97059.94;4170392;28;20643;-87
2022/05/23 08:50:11;;;;;;;5.13;4.40;;;;;;;22.42;80.10;97065.66;4172401;28;20637;-87
2022/05/23 08:52:25;;;;;;;5.10;4.60;;;;;;;22.40;77.95;97064.22;4188810;28;20628;-87
2022/05/23 08:54:40;;;;;;;5.20;4.70;;;;;;;22.35;76.43;97053.38;4165972;28;21215;-87
2022/05/23 08:57:20;;;;;;;8.13;4.97;;;;;;;22.35;75.65;97051.53;4121541;28;21055;-87
2022/05/23 08:59:29;;;;;;;4.97;4.47;;;;;;;22.44;76.40;97038.88;4157944;28;21024;-86
2022/05/23 09:01:41;;;;;;;6.03;5.47;;;;;;;22.55;76.61;97039.09;4156740;28;20625;-88
2022/05/23 09:03:49;;;;;;;5.47;4.60;;;;;;;22.70;76.40;97026.38;4173991;28;20628;-87
2022/05/23 09:05:56;;;;;;;5.50;4.77;;;;;;;22.80;76.63;97026.81;4169591;28;20623;-87
2022/05/23 09:08:13;;;;;;;5.30;4.80;;;;;;;22.96;78.21;97027.22;4150909;28;21226;-86
2022/05/23 09:10:23;;;;;;;7.73;4.93;;;;;;;23.01;77.28;97024.75;4187737;28;20671;-87
2022/05/23 09:12:26;;;;;;;5.47;4.93;;;;;;;23.05;77.33;97020.66;4170251;28;20628;-87
2022/05/23 09:14:30;;;;;;;6.80;5.00;;;;;;;23.17;78.69;97005.69;4162344;28;20630;-87
2022/05/23 09:16:40;;;;;;;6.10;4.93;;;;;;;23.21;76.05;97010.41;4172097;28;20668;-87
2022/05/23 09:18:47;;;;;;;5.00;4.50;;;;;;;23.27;75.69;97003.41;4172028;28;20623;-87
2022/05/23 09:20:52;;;;;;;5.10;4.60;;;;;;;23.23;74.49;96997.69;4154313;28;21059;-90
2022/05/23 09:23:00;;;;;;;8.07;5.00;;;;;;;23.22;75.19;96993.38;4149785;28;20668;-88
2022/05/23 09:25:06;;;;;;;9.20;5.03;;;;;;;23.19;74.59;96996.47;4167697;28;20684;-88
2022/05/23 09:27:15;;;;;;;5.60;4.40;;;;;;;23.23;74.84;97004.88;4170737;28;20723;-91
2022/05/23 09:29:18;;;;;;;7.97;4.33;;;;;;;23.28;74.36;97013.03;4172512;28;20791;-92
2022/05/23 09:31:30;;;;;;;6.40;4.30;;;;;;;23.31;73.83;97015.28;4171522;28;21290;-91
2022/05/23 09:33:45;;;;;;;5.10;4.53;;;;;;;23.35;74.10;97019.97;4187533;28;21260;-91
2022/05/23 09:35:51;;;;;;;6.03;4.13;;;;;;;23.46;72.92;97026.50;4161431;28;21056;-91
2022/05/23 09:38:14;;;;;;;5.80;5.20;;;;;;;23.53;74.63;97028.09;4175546;28;20632;-91
2022/05/23 09:40:44;;;;;;;5.00;4.50;;;;;;;23.70;73.83;97035.44;4169168;28;20651;-91
2022/05/23 09:47:46;;;;;;;8.20;5.00;;;;;;;24.39;71.44;97026.47;4158266;28;20625;-93
2022/05/23 09:49:52;;;;;;;5.23;4.30;;;;;;;24.40;72.98;97021.94;4158768;28;20637;-91
2022/05/23 09:51:57;;;;;;;5.30;4.23;;;;;;;24.23;70.35;97015.47;4176298;28;21237;-92
2022/05/23 09:54:04;;;;;;;7.73;4.80;;;;;;;24.15;73.12;97017.59;4189984;28;21041;-91
2022/05/23 09:56:28;;;;;;;5.00;4.50;;;;;;;24.12;72.80;97007.34;4160833;28;21077;-94
2022/05/23 09:58:35;;;;;;;4.80;4.30;;;;;;;24.07;71.46;97016.00;4188573;28;20636;-91
2022/05/23 10:00:40;;;;;;;6.23;4.50;;;;;;;24.15;72.67;97011.19;4169909;28;20687;-92
2022/05/23 10:02:52;;;;;;;5.73;4.13;;;;;;;24.48;73.04;97024.34;4171874;28;20818;-88
2022/05/23 10:04:55;;;;;;;5.90;4.90;;;;;;;24.73;71.03;97033.97;4159336;28;21094;-87
2022/05/23 10:06:59;;;;;;;5.33;4.47;;;;;;;24.95;71.01;97035.25;4187424;28;20642;-88
2022/05/23 10:09:02;;;;;;;5.77;4.10;;;;;;;25.11;71.97;97037.38;4162577;28;20672;-88
2022/05/23 10:11:22;;;;;;;5.23;4.73;;;;;;;25.08;69.29;97038.66;4174132;28;20630;-88
2022/05/23 10:13:28;;;;;;;6.07;4.57;;;;;;;25.11;69.61;97042.69;4175094;28;20637;-88
2022/05/23 10:15:33;;;;;;;5.50;4.67;;;;;;;25.03;72.13;97038.47;4174115;28;20714;-87
2022/05/23 10:17:38;;;;;;;8.30;4.97;;;;;;;25.01;71.16;97048.56;4172346;28;20723;-88
2022/05/23 10:19:41;;;;;;;4.83;4.40;;;;;;;24.94;73.99;97038.94;4177559;28;21173;-87
2022/05/23 10:21:45;;;;;;;8.00;5.07;;;;;;;25.05;74.14;97040.91;4183325;28;20652;-88
2022/05/23 10:24:00;;;;;;;7.00;5.10;;;;;;;25.17;73.87;97048.81;4173552;28;20637;-88
2022/05/23 10:26:07;;;;;;;6.80;4.90;;;;;;;25.24;70.82;97051.41;4173092;28;20729;-87
2022/05/23 10:28:14;;;;;;;6.77;5.10;;;;;;;25.26;70.00;97062.69;4169611;28;20631;-91
2022/05/23 10:30:20;;;;;;;6.37;5.10;;;;;;;25.20;72.06;97069.72;4158348;28;20685;-91
2022/05/23 10:32:29;;;;;;;6.13;5.53;;;;;;;25.14;71.75;97057.25;4176575;28;20751;-93
2022/05/23 10:34:39;;;;;;;5.77;4.90;;;;;;;24.98;71.80;97053.50;4171859;28;21217;-92
2022/05/23 10:36:48;;;;;;;5.77;5.17;;;;;;;24.92;73.13;97057.03;4174051;28;20645;-92
2022/05/23 10:43:52;;;;;;;8.50;5.20;;;;;;;25.06;74.01;97072.72;4174139;28;21062;-92
2022/05/23 10:45:57;;;;;;;6.10;5.50;;;;;;;24.90;71.51;97086.59;4160712;28;20634;-91
2022/05/23 10:48:28;;;;;;;6.63;5.67;;;;;;;24.58;72.54;97084.16;4175716;28;20647;-91
2022/05/23 10:50:35;;;;;;;6.73;5.43;;;;;;;24.62;73.71;97093.38;4174412;28;20739;-92
2022/05/23 10:52:44;;;;;;;5.77;5.27;;;;;;;24.61;74.00;97096.28;4156382;28;20637;-93
2022/05/23 10:58:05;;;;;;;6.70;5.07;;;;;;;24.52;74.35;97105.56;512118;23;21016;-87